createdAt,value
2018-12-24T00:02:28.647Z,91.00
2018-12-24T00:04:58.682Z,91.20
2018-12-24T00:07:28.702Z,91.00
2018-12-24T00:09:58.714Z,91.10
2018-12-24T00:12:28.762Z,91.20
2018-12-24T00:14:58.775Z,91.20
2018-12-24T00:17:28.791Z,91.20
2018-12-24T00:19:58.826Z,91.30
2018-12-24T00:22:28.853Z,91.30
2018-12-24T00:24:58.862Z,91.40
2018-12-24T00:27:28.923Z,91.40
2018-12-24T00:29:58.938Z,91.50
2018-12-24T00:32:28.963Z,91.50
2018-12-24T00:34:58.990Z,91.60
2018-12-24T00:37:29.025Z,91.70
2018-12-24T00:39:59.038Z,91.80
2018-12-24T00:42:29.668Z,91.90
2018-12-24T00:44:59.755Z,92.00
2018-12-24T00:47:29.774Z,92.10
2018-12-24T00:49:59.814Z,92.20
2018-12-24T00:52:29.827Z,92.20
2018-12-24T00:54:59.846Z,92.30
2018-12-24T00:57:29.883Z,92.40
2018-12-24T00:59:59.898Z,92.40
2018-12-24T01:02:29.915Z,92.50
2018-12-24T01:04:59.962Z,92.50
2018-12-24T01:07:30.063Z,92.60
2018-12-24T01:10:00.273Z,92.60
2018-12-24T01:12:30.598Z,92.60
2018-12-24T01:15:00.606Z,92.70
2018-12-24T01:17:30.699Z,92.80
2018-12-24T01:20:00.734Z,92.80
2018-12-24T01:22:30.839Z,92.90
2018-12-24T01:25:00.862Z,92.90
2018-12-24T01:27:30.934Z,92.90
2018-12-24T01:30:00.958Z,92.90
2018-12-24T01:32:31.006Z,92.90
2018-12-24T01:35:01.054Z,92.90
2018-12-24T01:37:31.068Z,93.00
2018-12-24T01:40:01.114Z,93.00
2018-12-24T01:42:33.535Z,93.00
2018-12-24T01:45:02.846Z,93.00
2018-12-24T01:47:32.858Z,93.10
2018-12-24T01:50:02.902Z,93.10
2018-12-24T01:52:33.043Z,93.20
2018-12-24T01:55:03.046Z,93.20
2018-12-24T01:57:33.086Z,93.20
2018-12-24T02:00:03.465Z,93.20
2018-12-24T02:02:33.578Z,93.20
2018-12-24T02:05:03.699Z,93.10
2018-12-24T02:07:33.828Z,93.00
2018-12-24T02:10:03.865Z,92.70
2018-12-24T02:12:42.067Z,92.60
2018-12-24T02:15:05.778Z,92.50
2018-12-24T02:17:35.795Z,92.50
2018-12-24T02:20:06.030Z,92.30
2018-12-24T02:22:36.050Z,92.50
2018-12-24T02:25:06.062Z,92.60
2018-12-24T02:27:36.114Z,92.70
2018-12-24T02:30:06.327Z,92.80
2018-12-24T02:32:36.350Z,92.90
2018-12-24T02:35:06.383Z,93.00
2018-12-24T02:37:36.400Z,93.00
2018-12-24T02:40:06.428Z,93.00
2018-12-24T02:42:36.467Z,93.00
2018-12-24T02:45:06.478Z,93.00
2018-12-24T02:47:36.563Z,93.00
2018-12-24T02:50:06.662Z,93.00
2018-12-24T02:52:36.666Z,93.20
2018-12-24T02:55:06.688Z,93.40
2018-12-24T02:57:36.734Z,93.40
2018-12-24T03:00:07.191Z,93.70
2018-12-24T03:02:37.196Z,93.70
2018-12-24T03:05:07.262Z,93.70
2018-12-24T03:07:37.275Z,93.90
2018-12-24T03:10:08.010Z,94.10
2018-12-24T03:12:38.070Z,94.30
2018-12-24T03:15:08.071Z,94.30
2018-12-24T03:17:38.087Z,94.30
2018-12-24T03:20:08.307Z,94.30
2018-12-24T03:22:38.410Z,94.20
2018-12-24T03:25:08.424Z,94.20
2018-12-24T03:27:38.458Z,94.20
2018-12-24T03:30:08.480Z,94.20
2018-12-24T03:32:38.501Z,94.20
2018-12-24T03:35:08.569Z,94.20
2018-12-24T03:37:38.598Z,94.20
2018-12-24T03:40:08.629Z,94.30
2018-12-24T03:42:38.675Z,94.30
2018-12-24T03:45:08.768Z,94.30
2018-12-24T03:47:38.780Z,94.30
2018-12-24T03:50:08.894Z,94.40
2018-12-24T03:52:39.370Z,94.50
2018-12-24T03:55:09.397Z,94.50
2018-12-24T03:57:39.464Z,94.50
2018-12-24T04:00:09.523Z,94.50
2018-12-24T04:02:39.542Z,94.50
2018-12-24T04:05:09.646Z,94.60
2018-12-24T04:07:39.665Z,94.60
2018-12-24T04:10:09.734Z,94.40
2018-12-24T04:12:39.794Z,94.40
2018-12-24T04:15:09.802Z,94.50
2018-12-24T04:17:39.820Z,94.40
2018-12-24T04:20:09.867Z,94.40
2018-12-24T04:22:39.893Z,94.40
2018-12-24T04:25:09.904Z,94.40
2018-12-24T04:27:41.902Z,94.50
2018-12-24T04:30:11.710Z,94.40
2018-12-24T04:32:41.774Z,94.40
2018-12-24T04:35:11.812Z,94.50
2018-12-24T04:37:41.842Z,94.40
2018-12-24T04:40:11.945Z,94.30
2018-12-24T04:42:42.011Z,94.30
2018-12-24T04:45:12.019Z,94.30
2018-12-24T04:47:42.038Z,94.40
2018-12-24T04:50:12.083Z,94.40
2018-12-24T04:52:42.158Z,94.60
2018-12-24T04:55:12.186Z,94.70
2018-12-24T04:57:42.230Z,94.80
2018-12-24T05:00:12.255Z,94.90
2018-12-24T05:02:42.270Z,94.70
2018-12-24T05:05:12.394Z,94.60
2018-12-24T05:07:42.416Z,94.50
2018-12-24T05:10:12.422Z,94.40
2018-12-24T05:12:42.451Z,94.30
2018-12-24T05:15:12.547Z,94.10
2018-12-24T05:17:42.751Z,93.90
2018-12-24T05:20:12.785Z,93.90
2018-12-24T05:22:42.866Z,94.00
2018-12-24T05:25:12.912Z,93.90
2018-12-24T05:27:42.922Z,93.80
2018-12-24T05:30:13.030Z,93.70
2018-12-24T05:32:43.078Z,93.70
2018-12-24T05:35:13.119Z,93.60
2018-12-24T05:37:43.110Z,93.50
2018-12-24T05:40:13.156Z,93.40
2018-12-24T05:42:43.250Z,93.30
2018-12-24T05:45:13.334Z,93.30
2018-12-24T05:47:43.366Z,93.20
2018-12-24T05:50:13.379Z,93.20
2018-12-24T05:52:43.381Z,93.20
2018-12-24T05:55:13.481Z,93.10
2018-12-24T05:57:43.485Z,93.10
2018-12-24T06:00:13.495Z,93.00
2018-12-24T06:02:43.565Z,93.30
2018-12-24T06:05:13.574Z,93.00
2018-12-24T06:07:43.606Z,93.00
2018-12-24T06:10:15.585Z,93.10
2018-12-24T06:12:45.598Z,93.10
2018-12-24T06:15:15.618Z,93.30
2018-12-24T06:17:45.658Z,93.00
2018-12-24T06:20:15.690Z,93.00
2018-12-24T06:22:45.712Z,93.00
2018-12-24T06:25:15.755Z,93.40
2018-12-24T06:27:45.778Z,93.30
2018-12-24T06:30:15.794Z,93.40
2018-12-24T06:32:45.841Z,93.50
2018-12-24T06:35:15.866Z,93.40
2018-12-24T06:37:45.892Z,93.40
2018-12-24T06:40:15.982Z,93.40
2018-12-24T06:42:46.003Z,93.40
2018-12-24T06:45:16.018Z,93.30
2018-12-24T06:47:46.057Z,93.30
2018-12-24T06:50:16.077Z,93.30
2018-12-24T06:52:46.103Z,93.30
2018-12-24T06:55:16.146Z,93.50
2018-12-24T06:57:46.231Z,93.50
2018-12-24T07:00:16.262Z,93.60
2018-12-24T07:02:46.334Z,93.60
2018-12-24T07:05:16.354Z,93.60
2018-12-24T07:07:46.375Z,93.60
2018-12-24T07:10:16.418Z,93.70
2018-12-24T07:12:46.427Z,93.80
2018-12-24T07:15:16.446Z,93.90
2018-12-24T07:17:46.482Z,93.90
2018-12-24T07:20:16.550Z,93.90
2018-12-24T07:22:46.578Z,93.90
2018-12-24T07:25:16.678Z,94.00
2018-12-24T07:27:46.710Z,94.00
2018-12-24T07:30:16.737Z,94.10
2018-12-24T07:32:46.777Z,94.10
2018-12-24T07:35:16.808Z,94.10
2018-12-24T07:37:46.821Z,94.10
2018-12-24T07:40:16.866Z,94.10
2018-12-24T07:42:46.898Z,94.20
2018-12-24T07:45:16.930Z,94.40
2018-12-24T07:47:46.971Z,94.40
2018-12-24T07:50:16.983Z,94.40
2018-12-24T07:52:47.330Z,94.40
2018-12-24T07:55:17.465Z,94.40
2018-12-24T07:57:47.510Z,94.40
2018-12-24T08:00:17.577Z,94.40
2018-12-24T08:02:47.614Z,94.40
2018-12-24T08:05:17.622Z,94.40
2018-12-24T08:07:47.631Z,94.40
2018-12-24T08:10:17.751Z,94.40
2018-12-24T08:12:47.758Z,94.30
2018-12-24T08:15:17.771Z,94.20
2018-12-24T08:17:47.806Z,94.10
2018-12-24T08:20:17.827Z,94.10
2018-12-24T08:22:47.838Z,94.10
2018-12-24T08:25:17.879Z,94.10
2018-12-24T08:27:47.878Z,94.00
2018-12-24T08:30:17.890Z,93.90
2018-12-24T08:32:47.932Z,93.80
2018-12-24T08:35:17.950Z,93.80
2018-12-24T08:37:47.962Z,93.70
2018-12-24T08:40:17.995Z,93.80
2018-12-24T08:42:48.051Z,93.30
2018-12-24T08:45:18.116Z,92.50
2018-12-24T08:47:48.175Z,92.70
2018-12-24T08:50:18.190Z,92.50
2018-12-24T08:52:48.206Z,92.40
2018-12-24T08:55:18.254Z,92.10
2018-12-24T08:57:48.292Z,92.10
2018-12-24T09:00:18.294Z,92.00
2018-12-24T09:02:48.422Z,91.90
2018-12-24T09:05:18.450Z,91.80
2018-12-24T09:07:48.474Z,91.60
2018-12-24T09:10:18.516Z,91.60
2018-12-24T09:12:48.530Z,91.60
2018-12-24T09:15:18.542Z,91.60
2018-12-24T09:17:48.558Z,91.60
2018-12-24T09:20:18.578Z,91.50
2018-12-24T09:22:48.590Z,91.50
2018-12-24T09:25:18.675Z,91.50
2018-12-24T09:27:48.685Z,91.60
2018-12-24T09:30:20.547Z,91.50
2018-12-24T09:32:50.570Z,91.50
2018-12-24T09:35:20.582Z,91.50
2018-12-24T09:37:50.602Z,91.50
2018-12-24T09:40:20.666Z,91.60
2018-12-24T09:42:51.686Z,91.60
2018-12-24T09:45:21.888Z,91.60
2018-12-24T09:47:51.911Z,91.60
2018-12-24T09:50:21.926Z,91.60
2018-12-24T09:52:51.926Z,91.60
2018-12-24T09:55:21.958Z,91.60
2018-12-24T09:57:51.974Z,91.70
2018-12-24T10:00:21.982Z,91.80
2018-12-24T10:03:21.602Z,91.80
2018-12-24T10:05:52.291Z,91.60
2018-12-24T10:08:24.714Z,91.40
2018-12-24T10:10:54.758Z,91.30
2018-12-24T10:13:24.874Z,91.30
2018-12-24T10:15:54.891Z,91.40
2018-12-24T10:18:24.932Z,91.50
2018-12-24T10:20:54.963Z,91.80
2018-12-24T10:24:05.434Z,91.70
2018-12-24T10:26:35.015Z,91.70
2018-12-24T10:29:04.579Z,91.70
2018-12-24T10:31:34.175Z,91.70
2018-12-24T10:34:03.737Z,91.70
2018-12-24T10:36:33.318Z,91.70
2018-12-24T10:39:02.918Z,91.70
2018-12-24T10:41:32.489Z,91.80
2018-12-24T10:44:02.067Z,91.80
2018-12-24T10:46:31.687Z,91.80
2018-12-24T10:49:01.266Z,91.70
2018-12-24T10:51:30.834Z,91.70
2018-12-24T10:54:00.496Z,91.70
2018-12-24T10:56:30.478Z,91.70
2018-12-24T10:59:00.051Z,91.50
2018-12-24T11:01:29.654Z,91.40
2018-12-24T11:03:59.281Z,91.40
2018-12-24T11:06:29.182Z,91.40
2018-12-24T11:08:58.774Z,91.40
2018-12-24T11:11:29.472Z,91.50
2018-12-24T11:13:59.087Z,91.50
2018-12-24T11:16:28.686Z,91.50
2018-12-24T11:18:58.267Z,91.50
2018-12-24T11:21:27.846Z,91.50
2018-12-24T11:23:57.446Z,91.60
2018-12-24T11:26:27.033Z,91.70
2018-12-24T11:28:56.610Z,91.80
2018-12-24T11:31:26.193Z,91.70
2018-12-24T11:33:55.792Z,91.80
2018-12-24T11:36:25.369Z,91.70
2018-12-24T11:38:54.966Z,91.70
2018-12-24T11:41:24.530Z,91.80
2018-12-24T11:43:54.120Z,91.70
2018-12-24T11:46:23.721Z,91.80
2018-12-24T11:48:53.309Z,91.50
2018-12-24T11:51:22.918Z,91.50
2018-12-24T11:53:52.522Z,91.90
2018-12-24T11:56:22.105Z,91.70
2018-12-24T11:58:51.678Z,91.70
2018-12-24T12:01:21.291Z,91.80
2018-12-24T12:03:50.868Z,91.90
2018-12-24T12:06:20.499Z,91.80
2018-12-24T12:08:50.090Z,91.90
2018-12-24T12:11:19.666Z,91.80
2018-12-24T12:13:49.245Z,91.70
2018-12-24T12:16:18.851Z,90.90
2018-12-24T12:18:48.416Z,91.00
2018-12-24T12:21:17.996Z,91.00
2018-12-24T12:23:47.588Z,91.10
2018-12-24T12:26:17.170Z,91.40
2018-12-24T12:28:46.747Z,91.40
2018-12-24T12:31:16.346Z,91.40
2018-12-24T12:33:45.922Z,91.50
2018-12-24T12:36:15.494Z,91.50
2018-12-24T12:38:45.103Z,91.60
2018-12-24T12:41:15.434Z,91.60
2018-12-24T12:43:45.010Z,91.60
2018-12-24T12:46:14.626Z,91.80
2018-12-24T12:48:44.414Z,91.50
2018-12-24T12:51:13.994Z,91.50
2018-12-24T12:53:43.589Z,91.50
2018-12-24T12:56:13.174Z,91.50
2018-12-24T12:58:42.742Z,91.40
2018-12-24T13:01:12.347Z,91.50
2018-12-24T13:03:41.985Z,91.40
2018-12-24T13:06:11.554Z,91.30
2018-12-24T13:08:41.202Z,91.40
2018-12-24T13:11:10.771Z,91.70
2018-12-24T13:13:40.350Z,91.40
2018-12-24T13:16:09.950Z,91.50
2018-12-24T13:18:39.524Z,91.60
2018-12-24T13:21:09.097Z,91.70
2018-12-24T13:23:38.696Z,91.70
2018-12-24T13:26:08.262Z,91.70
2018-12-24T13:28:37.868Z,91.70
2018-12-24T13:31:07.598Z,91.70
2018-12-24T13:33:37.283Z,91.60
2018-12-24T13:36:07.018Z,91.60
2018-12-24T13:38:36.624Z,91.70
2018-12-24T13:41:06.199Z,91.70
2018-12-24T13:43:35.766Z,91.70
2018-12-24T13:46:08.230Z,91.60
2018-12-24T13:48:38.039Z,91.50
2018-12-24T13:51:07.608Z,91.50
2018-12-24T13:53:41.895Z,91.60
2018-12-24T13:56:08.574Z,91.50
2018-12-24T13:58:38.157Z,91.80
2018-12-24T14:01:07.746Z,91.50
2018-12-24T14:03:37.330Z,91.50
2018-12-24T14:06:06.955Z,91.50
2018-12-24T14:08:36.546Z,91.40
2018-12-24T14:11:06.174Z,91.30
2018-12-24T14:13:35.746Z,91.30
2018-12-24T14:16:05.349Z,91.30
2018-12-24T14:18:34.914Z,91.30
2018-12-24T14:21:04.490Z,91.20
2018-12-24T14:23:34.971Z,91.20
2018-12-24T14:26:04.546Z,91.20
2018-12-24T14:28:34.114Z,91.30
2018-12-24T14:31:03.698Z,91.20
2018-12-24T14:33:33.882Z,91.20
2018-12-24T14:36:03.557Z,91.10
2018-12-24T14:38:33.147Z,91.10
2018-12-24T14:41:02.719Z,91.00
2018-12-24T14:43:32.294Z,91.00
2018-12-24T14:46:01.995Z,90.90
2018-12-24T14:48:31.568Z,90.80
2018-12-24T14:51:01.144Z,90.70
2018-12-24T14:53:31.173Z,90.60
2018-12-24T14:56:00.802Z,90.50
2018-12-24T14:58:30.386Z,90.50
2018-12-24T15:00:59.988Z,90.50
2018-12-24T15:03:29.559Z,90.50
2018-12-24T15:05:59.222Z,90.80
2018-12-24T15:08:28.822Z,90.60
2018-12-24T15:10:58.390Z,90.60
2018-12-24T15:13:28.027Z,90.80
2018-12-24T15:15:57.622Z,91.00
2018-12-24T15:18:27.204Z,91.10
2018-12-24T15:20:56.778Z,91.10
2018-12-24T15:23:26.370Z,91.10
2018-12-24T15:25:55.957Z,91.20
2018-12-24T15:28:25.540Z,91.30
2018-12-24T15:30:55.127Z,91.60
2018-12-24T15:33:24.694Z,91.40
2018-12-24T15:35:54.278Z,91.40
2018-12-24T15:38:23.878Z,91.50
2018-12-24T15:40:53.519Z,91.60
2018-12-24T15:43:23.095Z,91.60
2018-12-24T15:45:52.718Z,91.70
2018-12-24T15:48:22.264Z,91.80
2018-12-24T15:50:51.833Z,91.80
2018-12-24T15:53:21.431Z,91.90
2018-12-24T15:55:51.074Z,91.90
2018-12-24T15:58:20.639Z,91.90
2018-12-24T16:00:50.238Z,91.90
2018-12-24T16:03:19.818Z,91.90
2018-12-24T16:05:49.387Z,91.90
2018-12-24T16:08:18.998Z,91.90
2018-12-24T16:10:48.562Z,92.00
2018-12-24T16:13:18.129Z,92.20
2018-12-24T16:15:47.781Z,92.30
2018-12-24T16:18:17.349Z,92.30
2018-12-24T16:20:46.914Z,92.20
2018-12-24T16:23:16.514Z,92.20
2018-12-24T16:25:46.087Z,92.30
2018-12-24T16:28:15.667Z,92.20
2018-12-24T16:30:45.262Z,92.20
2018-12-24T16:33:14.842Z,92.10
2018-12-24T16:35:44.421Z,92.10
2018-12-24T16:38:14.015Z,92.40
2018-12-24T16:40:43.591Z,92.20
2018-12-24T16:43:13.530Z,92.30
2018-12-24T16:45:43.179Z,92.40
2018-12-24T16:48:12.746Z,92.40
2018-12-24T16:50:42.313Z,92.40
2018-12-24T16:53:11.926Z,92.30
2018-12-24T16:55:41.498Z,92.40
2018-12-24T16:58:11.065Z,92.40
2018-12-24T17:00:40.667Z,92.30
2018-12-24T17:03:10.242Z,92.10
2018-12-24T17:05:39.818Z,91.80
2018-12-24T17:08:09.418Z,91.70
2018-12-24T17:10:38.990Z,91.60
2018-12-24T17:13:08.562Z,91.50
2018-12-24T17:15:38.152Z,91.50
2018-12-24T17:18:07.778Z,91.50
2018-12-24T17:20:37.354Z,91.40
2018-12-24T17:23:06.952Z,91.50
2018-12-24T17:25:36.559Z,91.30
2018-12-24T17:28:06.154Z,91.30
2018-12-24T17:30:35.782Z,91.20
2018-12-24T17:33:05.354Z,91.30
2018-12-24T17:35:34.930Z,91.20
2018-12-24T17:38:04.520Z,91.20
2018-12-24T17:40:34.087Z,91.20
2018-12-24T17:43:03.695Z,91.10
2018-12-24T17:45:33.290Z,91.00
2018-12-24T17:48:02.958Z,91.10
2018-12-24T17:50:32.534Z,91.20
2018-12-24T17:53:02.430Z,91.20
2018-12-24T17:55:32.002Z,91.30
2018-12-24T17:58:01.649Z,91.30
2018-12-24T18:00:31.242Z,91.30
2018-12-24T18:03:00.815Z,91.30
2018-12-24T18:05:30.382Z,91.20
2018-12-24T18:07:59.970Z,91.10
2018-12-24T18:10:29.546Z,91.00
2018-12-24T18:12:59.143Z,90.90
2018-12-24T18:15:28.733Z,90.80
2018-12-24T18:17:58.302Z,90.70
2018-12-24T18:20:27.881Z,90.90
2018-12-24T18:22:57.834Z,90.60
2018-12-24T18:25:27.405Z,90.60
2018-12-24T18:27:57.037Z,90.50
2018-12-24T18:30:26.623Z,90.50
2018-12-24T18:32:56.193Z,90.50
2018-12-24T18:35:26.773Z,90.50
2018-12-24T18:37:56.366Z,90.40
2018-12-24T18:40:25.974Z,90.30
2018-12-24T18:42:55.546Z,90.20
2018-12-24T18:45:25.174Z,90.10
2018-12-24T18:47:54.749Z,90.10
2018-12-24T18:50:24.351Z,90.10
2018-12-24T18:52:53.954Z,90.20
2018-12-24T18:55:23.584Z,90.20
2018-12-24T18:57:53.138Z,90.10
2018-12-24T19:00:22.814Z,90.10
2018-12-24T19:02:52.386Z,90.10
2018-12-24T19:05:22.013Z,90.00
2018-12-24T19:07:51.623Z,90.00
2018-12-24T19:10:21.202Z,90.00
2018-12-24T19:12:50.782Z,90.00
2018-12-24T19:15:20.381Z,89.70
2018-12-24T19:17:50.054Z,89.40
2018-12-24T19:20:19.627Z,89.40
2018-12-24T19:22:50.298Z,89.50
2018-12-24T19:25:19.866Z,89.50
2018-12-24T19:27:49.443Z,89.50
2018-12-24T19:30:19.034Z,89.20
2018-12-24T19:32:48.594Z,89.30
2018-12-24T19:35:18.190Z,89.00
2018-12-24T19:37:47.782Z,89.00
2018-12-24T19:40:17.351Z,88.80
2018-12-24T19:42:46.922Z,88.50
2018-12-24T19:45:16.596Z,88.40
2018-12-24T19:47:49.816Z,88.20
2018-12-24T19:50:17.382Z,88.10
2018-12-24T19:52:46.985Z,88.10
2018-12-24T19:55:16.546Z,88.20
2018-12-24T19:57:46.114Z,88.30
2018-12-24T20:00:15.721Z,88.40
2018-12-24T20:02:45.771Z,89.30
2018-12-24T20:05:15.442Z,88.80
2018-12-24T20:07:45.048Z,88.80
2018-12-24T20:10:14.646Z,89.00
2018-12-24T20:12:44.348Z,89.10
2018-12-24T20:15:13.938Z,89.10
2018-12-24T20:17:43.514Z,89.30
2018-12-24T20:20:13.098Z,89.40
2018-12-24T20:22:42.696Z,89.40
2018-12-24T20:25:12.330Z,89.50
2018-12-24T20:27:41.913Z,89.30
2018-12-24T20:30:11.490Z,89.30
2018-12-24T20:32:41.054Z,89.10
2018-12-24T20:35:10.711Z,88.90
2018-12-24T20:37:40.273Z,88.80
2018-12-24T20:40:09.842Z,88.80
2018-12-24T20:42:39.446Z,88.80
2018-12-24T20:45:09.046Z,88.80
2018-12-24T20:47:38.627Z,88.80
2018-12-24T20:50:08.225Z,88.80
2018-12-24T20:52:37.795Z,88.80
2018-12-24T20:55:07.406Z,88.80
2018-12-24T20:57:37.011Z,88.90
2018-12-24T21:00:07.250Z,88.90
2018-12-24T21:02:36.832Z,88.90
2018-12-24T21:05:07.294Z,88.80
2018-12-24T21:07:36.874Z,88.90
2018-12-24T21:10:06.498Z,88.90
2018-12-24T21:12:36.159Z,89.00
2018-12-24T21:15:05.741Z,89.00
2018-12-24T21:17:35.342Z,89.00
2018-12-24T21:20:05.102Z,89.00
2018-12-24T21:22:34.674Z,89.60
2018-12-24T21:25:04.246Z,89.10
2018-12-24T21:27:33.905Z,88.90
2018-12-24T21:30:03.500Z,88.80
2018-12-24T21:32:33.069Z,88.70
2018-12-24T21:35:02.675Z,88.60
2018-12-24T21:37:32.250Z,88.50
2018-12-24T21:40:01.914Z,88.40
2018-12-24T21:42:31.510Z,88.40
2018-12-24T21:45:01.070Z,88.30
2018-12-24T21:47:30.644Z,88.40
2018-12-24T21:50:00.315Z,88.20
2018-12-24T21:52:29.898Z,88.70
2018-12-24T21:54:59.585Z,88.60
2018-12-24T21:57:29.178Z,88.40
2018-12-24T21:59:58.750Z,88.00
2018-12-24T22:02:28.330Z,87.60
2018-12-24T22:04:57.927Z,87.40
2018-12-24T22:07:29.870Z,87.30
2018-12-24T22:09:59.434Z,87.90
2018-12-24T22:12:29.025Z,87.20
2018-12-24T22:14:58.598Z,87.10
2018-12-24T22:17:28.170Z,86.90
2018-12-24T22:19:57.758Z,86.80
2018-12-24T22:22:27.337Z,86.60
2018-12-24T22:24:56.907Z,86.60
2018-12-24T22:27:26.490Z,86.60
2018-12-24T22:29:56.124Z,86.50
2018-12-24T22:32:28.566Z,86.40
2018-12-24T22:34:58.167Z,86.40
2018-12-24T22:37:27.734Z,86.30
2018-12-24T22:39:57.305Z,86.30
2018-12-24T22:42:26.897Z,86.10
2018-12-24T22:44:56.461Z,86.10
2018-12-24T22:47:26.028Z,86.10
2018-12-24T22:49:56.478Z,86.20
2018-12-24T22:52:26.102Z,86.20
2018-12-24T22:54:55.680Z,86.30
2018-12-24T22:57:25.262Z,86.30
2018-12-24T22:59:54.850Z,86.40
2018-12-24T23:02:24.420Z,86.70
2018-12-24T23:04:54.067Z,87.30
2018-12-24T23:07:23.653Z,87.60
2018-12-24T23:09:53.218Z,87.80
2018-12-24T23:12:22.798Z,87.90
2018-12-24T23:14:52.366Z,87.90
2018-12-24T23:17:21.933Z,87.70
2018-12-24T23:19:51.538Z,87.50
2018-12-24T23:22:21.110Z,87.30
2018-12-24T23:24:50.766Z,87.40
2018-12-24T23:27:20.366Z,87.20
2018-12-24T23:29:49.939Z,87.00
2018-12-24T23:32:19.566Z,86.90
2018-12-24T23:34:49.165Z,87.00
2018-12-24T23:37:18.739Z,86.70
2018-12-24T23:39:48.350Z,86.30
2018-12-24T23:42:17.938Z,86.30
2018-12-24T23:44:47.518Z,86.10
2018-12-24T23:47:17.090Z,86.10
2018-12-24T23:49:46.678Z,86.00
2018-12-24T23:52:16.247Z,86.10
2018-12-24T23:54:45.822Z,86.00
2018-12-24T23:57:15.422Z,85.60
2018-12-24T23:59:44.982Z,85.20
